sensor_id;sensor_type;location;lat;lon;timestamp;pressure;altitude;pressure_sealevel;temperature;humidity
51715;BME280;39115;59.332;18.034;2022-11-20T00:01:57;101314.63;;;1.60;69.35
51715;BME280;39115;59.332;18.034;2022-11-20T00:04:22;101306.97;;;1.55;69.38
51715;BME280;39115;59.332;18.034;2022-11-20T00:06:47;101297.63;;;1.48;69.44
51715;BME280;39115;59.332;18.034;2022-11-20T00:09:12;101295.19;;;1.43;69.79
51715;BME280;39115;59.332;18.034;2022-11-20T00:11:38;101298.72;;;1.42;69.39
51715;BME280;39115;59.332;18.034;2022-11-20T00:14:03;101294.47;;;1.39;69.58
51715;BME280;39115;59.332;18.034;2022-11-20T00:16:30;101284.09;;;1.36;69.92
51715;BME280;39115;59.332;18.034;2022-11-20T00:18:55;101291.16;;;1.34;69.67
51715;BME280;39115;59.332;18.034;2022-11-20T00:21:22;101279.91;;;1.32;69.94
51715;BME280;39115;59.332;18.034;2022-11-20T00:23:48;101281.66;;;1.32;69.66
51715;BME280;39115;59.332;18.034;2022-11-20T00:26:14;101282.63;;;1.29;69.69
51715;BME280;39115;59.332;18.034;2022-11-20T00:28:40;101290.56;;;1.28;69.61
51715;BME280;39115;59.332;18.034;2022-11-20T00:31:10;101292.25;;;1.29;69.70
51715;BME280;39115;59.332;18.034;2022-11-20T00:33:35;101288.72;;;1.30;69.59
51715;BME280;39115;59.332;18.034;2022-11-20T00:36:08;101284.44;;;1.27;69.60
51715;BME280;39115;59.332;18.034;2022-11-20T00:38:33;101285.31;;;1.28;69.70
51715;BME280;39115;59.332;18.034;2022-11-20T00:40:59;101280.06;;;1.28;69.59
51715;BME280;39115;59.332;18.034;2022-11-20T00:43:26;101280.00;;;1.29;69.38
51715;BME280;39115;59.332;18.034;2022-11-20T00:45:56;101273.97;;;1.27;69.97
51715;BME280;39115;59.332;18.034;2022-11-20T00:48:21;101262.56;;;1.28;69.60
51715;BME280;39115;59.332;18.034;2022-11-20T00:50:46;101270.41;;;1.28;69.88
51715;BME280;39115;59.332;18.034;2022-11-20T00:53:11;101256.41;;;1.29;69.60
51715;BME280;39115;59.332;18.034;2022-11-20T00:55:37;101252.91;;;1.29;69.58
51715;BME280;39115;59.332;18.034;2022-11-20T00:58:02;101261.72;;;1.28;69.71
51715;BME280;39115;59.332;18.034;2022-11-20T01:00:27;101250.34;;;1.27;69.91
51715;BME280;39115;59.332;18.034;2022-11-20T01:02:55;101253.03;;;1.25;69.82
51715;BME280;39115;59.332;18.034;2022-11-20T01:05:20;101251.22;;;1.28;69.72
51715;BME280;39115;59.332;18.034;2022-11-20T01:07:45;101253.88;;;1.26;69.61
51715;BME280;39115;59.332;18.034;2022-11-20T01:10:11;101243.53;;;1.23;69.89
51715;BME280;39115;59.332;18.034;2022-11-20T01:12:36;101242.72;;;1.21;69.97
51715;BME280;39115;59.332;18.034;2022-11-20T01:15:02;101234.78;;;1.22;69.69
51715;BME280;39115;59.332;18.034;2022-11-20T01:17:27;101246.19;;;1.21;70.18
51715;BME280;39115;59.332;18.034;2022-11-20T01:19:52;101242.81;;;1.19;69.95
51715;BME280;39115;59.332;18.034;2022-11-20T01:22:17;101244.56;;;1.19;69.88
51715;BME280;39115;59.332;18.034;2022-11-20T01:24:43;101237.56;;;1.19;69.83
51715;BME280;39115;59.332;18.034;2022-11-20T01:27:08;101236.69;;;1.19;70.29
51715;BME280;39115;59.332;18.034;2022-11-20T01:29:33;101228.81;;;1.19;69.88
51715;BME280;39115;59.332;18.034;2022-11-20T01:31:58;101220.94;;;1.19;69.86
51715;BME280;39115;59.332;18.034;2022-11-20T01:34:24;101225.34;;;1.18;69.88
51715;BME280;39115;59.332;18.034;2022-11-20T01:36:50;101221.75;;;1.21;69.73
51715;BME280;39115;59.332;18.034;2022-11-20T01:39:17;101223.53;;;1.20;70.14
51715;BME280;39115;59.332;18.034;2022-11-20T01:41:43;101219.06;;;1.22;70.17
51715;BME280;39115;59.332;18.034;2022-11-20T01:47:12;101206.75;;;1.24;70.34
51715;BME280;39115;59.332;18.034;2022-11-20T01:49:50;101203.22;;;1.25;69.74
51715;BME280;39115;59.332;18.034;2022-11-20T01:52:20;101196.13;;;1.28;69.73
51715;BME280;39115;59.332;18.034;2022-11-20T01:57:19;101203.06;;;1.29;70.04
51715;BME280;39115;59.332;18.034;2022-11-20T01:59:47;101189.03;;;1.30;69.79
51715;BME280;39115;59.332;18.034;2022-11-20T02:02:14;101187.22;;;1.32;70.05
51715;BME280;39115;59.332;18.034;2022-11-20T02:04:40;101186.22;;;1.34;70.25
51715;BME280;39115;59.332;18.034;2022-11-20T02:07:05;101186.22;;;1.34;70.12
51715;BME280;39115;59.332;18.034;2022-11-20T02:09:30;101184.47;;;1.35;69.64
51715;BME280;39115;59.332;18.034;2022-11-20T02:11:56;101176.63;;;1.33;69.82
51715;BME280;39115;59.332;18.034;2022-11-20T02:14:21;101177.59;;;1.32;69.73
51715;BME280;39115;59.332;18.034;2022-11-20T02:16:48;101168.84;;;1.32;70.05
51715;BME280;39115;59.332;18.034;2022-11-20T02:19:26;101170.66;;;1.30;69.89
51715;BME280;39115;59.332;18.034;2022-11-20T02:24:26;101167.41;;;1.24;69.88
51715;BME280;39115;59.332;18.034;2022-11-20T02:27:02;101151.75;;;1.23;70.40
51715;BME280;39115;59.332;18.034;2022-11-20T02:29:52;101146.41;;;1.24;69.94
51715;BME280;39115;59.332;18.034;2022-11-20T02:34:44;101144.72;;;1.23;69.96
51715;BME280;39115;59.332;18.034;2022-11-20T02:37:09;101142.09;;;1.23;70.09
51715;BME280;39115;59.332;18.034;2022-11-20T02:39:34;101144.84;;;1.20;69.96
51715;BME280;39115;59.332;18.034;2022-11-20T02:42:00;101144.91;;;1.19;70.10
51715;BME280;39115;59.332;18.034;2022-11-20T02:44:25;101139.66;;;1.19;69.96
51715;BME280;39115;59.332;18.034;2022-11-20T02:46:51;101130.88;;;1.20;70.21
51715;BME280;39115;59.332;18.034;2022-11-20T02:49:16;101133.50;;;1.20;70.01
51715;BME280;39115;59.332;18.034;2022-11-20T02:51:41;101132.78;;;1.16;70.39
51715;BME280;39115;59.332;18.034;2022-11-20T02:54:07;101132.78;;;1.16;70.36
51715;BME280;39115;59.332;18.034;2022-11-20T02:56:32;101124.91;;;1.16;69.97
51715;BME280;39115;59.332;18.034;2022-11-20T02:58:57;101122.22;;;1.18;70.36
51715;BME280;39115;59.332;18.034;2022-11-20T03:01:22;101121.28;;;1.19;69.89
51715;BME280;39115;59.332;18.034;2022-11-20T03:03:48;101116.97;;;1.18;69.93
51715;BME280;39115;59.332;18.034;2022-11-20T03:06:14;101119.66;;;1.16;69.90
51715;BME280;39115;59.332;18.034;2022-11-20T03:08:39;101112.63;;;1.17;70.38
51715;BME280;39115;59.332;18.034;2022-11-20T03:11:05;101115.25;;;1.17;70.48
51715;BME280;39115;59.332;18.034;2022-11-20T03:13:31;101106.53;;;1.16;70.42
51715;BME280;39115;59.332;18.034;2022-11-20T03:15:56;101112.59;;;1.18;70.34
51715;BME280;39115;59.332;18.034;2022-11-20T03:18:22;101108.25;;;1.17;70.37
51715;BME280;39115;59.332;18.034;2022-11-20T03:20:47;101109.25;;;1.15;70.18
51715;BME280;39115;59.332;18.034;2022-11-20T03:23:12;101099.66;;;1.14;70.42
51715;BME280;39115;59.332;18.034;2022-11-20T03:25:37;101100.50;;;1.14;70.16
51715;BME280;39115;59.332;18.034;2022-11-20T03:28:03;101104.00;;;1.15;70.09
51715;BME280;39115;59.332;18.034;2022-11-20T03:30:28;101091.81;;;1.14;70.45
51715;BME280;39115;59.332;18.034;2022-11-20T03:32:53;101086.56;;;1.14;70.37
51715;BME280;39115;59.332;18.034;2022-11-20T03:35:19;101084.00;;;1.12;70.44
51715;BME280;39115;59.332;18.034;2022-11-20T03:37:44;101084.84;;;1.13;70.57
51715;BME280;39115;59.332;18.034;2022-11-20T03:40:11;101081.31;;;1.14;70.47
51715;BME280;39115;59.332;18.034;2022-11-20T03:42:36;101089.25;;;1.12;70.62
51715;BME280;39115;59.332;18.034;2022-11-20T03:45:10;101086.66;;;1.10;70.36
51715;BME280;39115;59.332;18.034;2022-11-20T03:47:36;101074.63;;;1.06;70.49
51715;BME280;39115;59.332;18.034;2022-11-20T03:50:01;101079.00;;;1.06;70.44
51715;BME280;39115;59.332;18.034;2022-11-20T03:52:27;101069.38;;;1.06;70.61
51715;BME280;39115;59.332;18.034;2022-11-20T03:54:52;101064.22;;;1.05;70.51
51715;BME280;39115;59.332;18.034;2022-11-20T03:57:17;101066.88;;;1.03;70.13
51715;BME280;39115;59.332;18.034;2022-11-20T03:59:43;101063.53;;;1.00;70.28
51715;BME280;39115;59.332;18.034;2022-11-20T04:02:08;101058.22;;;1.01;70.45
51715;BME280;39115;59.332;18.034;2022-11-20T04:04:33;101051.34;;;0.99;70.25
51715;BME280;39115;59.332;18.034;2022-11-20T04:06:58;101052.22;;;0.99;70.19
51715;BME280;39115;59.332;18.034;2022-11-20T04:09:24;101053.91;;;1.00;70.10
51715;BME280;39115;59.332;18.034;2022-11-20T04:11:49;101058.28;;;1.00;70.59
51715;BME280;39115;59.332;18.034;2022-11-20T04:14:14;101053.13;;;0.98;70.10
51715;BME280;39115;59.332;18.034;2022-11-20T04:16:40;101038.22;;;0.99;70.49
51715;BME280;39115;59.332;18.034;2022-11-20T04:19:08;101043.56;;;0.97;70.46
51715;BME280;39115;59.332;18.034;2022-11-20T04:21:34;101049.72;;;0.96;70.55
51715;BME280;39115;59.332;18.034;2022-11-20T04:23:59;101035.69;;;0.97;70.82
51715;BME280;39115;59.332;18.034;2022-11-20T04:26:26;101043.47;;;0.99;70.31
51715;BME280;39115;59.332;18.034;2022-11-20T04:28:51;101035.59;;;0.99;70.40
51715;BME280;39115;59.332;18.034;2022-11-20T04:31:18;101022.50;;;0.99;70.68
51715;BME280;39115;59.332;18.034;2022-11-20T04:33:44;101017.06;;;1.03;70.46
51715;BME280;39115;59.332;18.034;2022-11-20T04:36:14;101016.94;;;1.06;70.56
51715;BME280;39115;59.332;18.034;2022-11-20T04:38:40;101006.38;;;1.08;70.49
51715;BME280;39115;59.332;18.034;2022-11-20T04:41:05;101001.94;;;1.10;70.26
51715;BME280;39115;59.332;18.034;2022-11-20T04:43:31;101005.38;;;1.10;70.42
51715;BME280;39115;59.332;18.034;2022-11-20T04:45:57;101000.09;;;1.12;70.41
51715;BME280;39115;59.332;18.034;2022-11-20T04:48:23;101004.53;;;1.10;69.93
51715;BME280;39115;59.332;18.034;2022-11-20T04:50:49;100999.31;;;1.10;70.45
51715;BME280;39115;59.332;18.034;2022-11-20T04:53:14;100997.59;;;1.09;70.22
51715;BME280;39115;59.332;18.034;2022-11-20T04:55:40;101000.22;;;1.09;70.44
51715;BME280;39115;59.332;18.034;2022-11-20T04:58:05;101001.84;;;1.12;70.52
51715;BME280;39115;59.332;18.034;2022-11-20T05:00:31;100992.94;;;1.16;70.71
51715;BME280;39115;59.332;18.034;2022-11-20T05:02:56;100996.31;;;1.18;70.46
51715;BME280;39115;59.332;18.034;2022-11-20T05:05:22;100993.66;;;1.19;70.35
51715;BME280;39115;59.332;18.034;2022-11-20T05:07:47;100992.59;;;1.23;70.16
51715;BME280;39115;59.332;18.034;2022-11-20T05:10:12;100981.06;;;1.28;70.40
51715;BME280;39115;59.332;18.034;2022-11-20T05:12:38;100976.56;;;1.30;70.24
51715;BME280;39115;59.332;18.034;2022-11-20T05:15:03;100979.19;;;1.30;69.95
51715;BME280;39115;59.332;18.034;2022-11-20T05:17:28;100970.47;;;1.29;70.45
51715;BME280;39115;59.332;18.034;2022-11-20T05:19:54;100967.94;;;1.28;70.33
51715;BME280;39115;59.332;18.034;2022-11-20T05:22:19;100968.78;;;1.28;70.36
51715;BME280;39115;59.332;18.034;2022-11-20T05:24:44;100967.00;;;1.29;70.22
51715;BME280;39115;59.332;18.034;2022-11-20T05:27:09;100966.94;;;1.30;70.16
51715;BME280;39115;59.332;18.034;2022-11-20T05:29:35;100972.13;;;1.32;70.31
51715;BME280;39115;59.332;18.034;2022-11-20T05:32:00;100958.06;;;1.33;69.99
51715;BME280;39115;59.332;18.034;2022-11-20T05:34:25;100956.38;;;1.32;70.06
51715;BME280;39115;59.332;18.034;2022-11-20T05:36:51;100953.81;;;1.30;70.41
51715;BME280;39115;59.332;18.034;2022-11-20T05:39:16;100940.84;;;1.27;70.55
51715;BME280;39115;59.332;18.034;2022-11-20T05:41:41;100949.56;;;1.28;70.23
51715;BME280;39115;59.332;18.034;2022-11-20T05:44:07;100947.91;;;1.25;70.42
51715;BME280;39115;59.332;18.034;2022-11-20T05:46:32;100939.28;;;1.23;70.45
51715;BME280;39115;59.332;18.034;2022-11-20T05:48:57;100941.06;;;1.22;70.34
51715;BME280;39115;59.332;18.034;2022-11-20T05:51:23;100934.09;;;1.21;70.37
51715;BME280;39115;59.332;18.034;2022-11-20T05:53:48;100935.88;;;1.21;70.32
51715;BME280;39115;59.332;18.034;2022-11-20T05:56:15;100943.75;;;1.21;70.17
51715;BME280;39115;59.332;18.034;2022-11-20T05:58:40;100934.09;;;1.21;70.17
51715;BME280;39115;59.332;18.034;2022-11-20T06:01:07;100937.66;;;1.20;70.63
51715;BME280;39115;59.332;18.034;2022-11-20T06:03:32;100932.41;;;1.20;70.14
51715;BME280;39115;59.332;18.034;2022-11-20T06:06:01;100939.28;;;1.23;70.48
51715;BME280;39115;59.332;18.034;2022-11-20T06:08:26;100928.84;;;1.21;70.12
51715;BME280;39115;59.332;18.034;2022-11-20T06:10:52;100924.56;;;1.20;70.80
51715;BME280;39115;59.332;18.034;2022-11-20T06:13:17;100924.41;;;1.23;70.29
51715;BME280;39115;59.332;18.034;2022-11-20T06:15:47;100916.59;;;1.22;70.59
51715;BME280;39115;59.332;18.034;2022-11-20T06:18:13;100930.56;;;1.22;70.14
51715;BME280;39115;59.332;18.034;2022-11-20T06:20:38;100930.63;;;1.21;70.13
51715;BME280;39115;59.332;18.034;2022-11-20T06:23:03;100936.72;;;1.21;70.60
51715;BME280;39115;59.332;18.034;2022-11-20T06:25:28;100932.47;;;1.19;70.35
51715;BME280;39115;59.332;18.034;2022-11-20T06:27:54;100918.56;;;1.17;70.44
51715;BME280;39115;59.332;18.034;2022-11-20T06:30:19;100922.06;;;1.17;70.31
51715;BME280;39115;59.332;18.034;2022-11-20T06:32:44;100927.31;;;1.17;70.90
51715;BME280;39115;59.332;18.034;2022-11-20T06:35:10;100918.56;;;1.17;70.45
51715;BME280;39115;59.332;18.034;2022-11-20T06:37:35;100918.53;;;1.18;70.35
51715;BME280;39115;59.332;18.034;2022-11-20T06:40:00;100910.69;;;1.17;70.38
51715;BME280;39115;59.332;18.034;2022-11-20T06:42:25;100916.81;;;1.17;70.36
51715;BME280;39115;59.332;18.034;2022-11-20T06:44:51;100910.66;;;1.18;70.80
51715;BME280;39115;59.332;18.034;2022-11-20T06:47:16;100902.72;;;1.20;70.75
51715;BME280;39115;59.332;18.034;2022-11-20T06:49:41;100900.88;;;1.22;70.36
51715;BME280;39115;59.332;18.034;2022-11-20T06:52:07;100896.47;;;1.22;70.36
51715;BME280;39115;59.332;18.034;2022-11-20T06:54:32;100897.38;;;1.21;70.39
51715;BME280;39115;59.332;18.034;2022-11-20T06:56:57;100892.94;;;1.23;70.50
51715;BME280;39115;59.332;18.034;2022-11-20T06:59:22;100888.53;;;1.24;70.41
51715;BME280;39115;59.332;18.034;2022-11-20T07:01:48;100891.00;;;1.27;70.82
51715;BME280;39115;59.332;18.034;2022-11-20T07:04:13;100895.25;;;1.30;70.57
51715;BME280;39115;59.332;18.034;2022-11-20T07:06:38;100899.44;;;1.34;70.65
51715;BME280;39115;59.332;18.034;2022-11-20T07:09:03;100898.47;;;1.36;70.62
51715;BME280;39115;59.332;18.034;2022-11-20T07:11:29;100903.63;;;1.38;70.51
51715;BME280;39115;59.332;18.034;2022-11-20T07:13:54;100894.84;;;1.39;70.43
51715;BME280;39115;59.332;18.034;2022-11-20T07:16:21;100892.91;;;1.42;70.48
51715;BME280;39115;59.332;18.034;2022-11-20T07:18:46;100898.16;;;1.42;70.66
51715;BME280;39115;59.332;18.034;2022-11-20T07:21:12;100888.53;;;1.43;70.38
51715;BME280;39115;59.332;18.034;2022-11-20T07:23:37;100885.75;;;1.46;70.50
51715;BME280;39115;59.332;18.034;2022-11-20T07:26:06;100869.97;;;1.48;70.26
51715;BME280;39115;59.332;18.034;2022-11-20T07:28:32;100875.13;;;1.49;70.67
51715;BME280;39115;59.332;18.034;2022-11-20T07:30:57;100869.00;;;1.49;70.31
51715;BME280;39115;59.332;18.034;2022-11-20T07:33:22;100876.88;;;1.49;70.64
51715;BME280;39115;59.332;18.034;2022-11-20T07:35:48;100867.94;;;1.53;70.54
51715;BME280;39115;59.332;18.034;2022-11-20T07:38:13;100864.25;;;1.57;70.61
51715;BME280;39115;59.332;18.034;2022-11-20T07:40:38;100865.03;;;1.59;70.21
51715;BME280;39115;59.332;18.034;2022-11-20T07:43:03;100871.97;;;1.60;70.38
51715;BME280;39115;59.332;18.034;2022-11-20T07:45:29;100866.66;;;1.62;70.17
51715;BME280;39115;59.332;18.034;2022-11-20T07:47:54;100870.06;;;1.64;70.63
51715;BME280;39115;59.332;18.034;2022-11-20T07:50:19;100868.28;;;1.64;70.37
51715;BME280;39115;59.332;18.034;2022-11-20T07:52:45;100862.97;;;1.66;70.35
51715;BME280;39115;59.332;18.034;2022-11-20T07:55:10;100855.72;;;1.71;70.38
51715;BME280;39115;59.332;18.034;2022-11-20T07:57:35;100858.19;;;1.74;70.34
51715;BME280;39115;59.332;18.034;2022-11-20T08:00:01;100843.19;;;1.76;70.19
51715;BME280;39115;59.332;18.034;2022-11-20T08:02:26;100848.31;;;1.79;70.15
51715;BME280;39115;59.332;18.034;2022-11-20T08:04:52;100851.84;;;1.78;69.98
51715;BME280;39115;59.332;18.034;2022-11-20T08:07:17;100850.09;;;1.79;70.44
51715;BME280;39115;59.332;18.034;2022-11-20T08:09:42;100836.81;;;1.82;70.52
51715;BME280;39115;59.332;18.034;2022-11-20T08:12:08;100834.88;;;1.85;70.35
51715;BME280;39115;59.332;18.034;2022-11-20T08:14:52;100826.84;;;1.88;70.16
51715;BME280;39115;59.332;18.034;2022-11-20T08:17:17;100826.06;;;1.86;70.17
51715;BME280;39115;59.332;18.034;2022-11-20T08:19:43;100833.13;;;1.86;70.26
51715;BME280;39115;59.332;18.034;2022-11-20T08:22:08;100826.84;;;1.88;70.37
51715;BME280;39115;59.332;18.034;2022-11-20T08:24:33;100831.09;;;1.91;70.26
51715;BME280;39115;59.332;18.034;2022-11-20T08:26:59;100823.13;;;1.93;70.26
51715;BME280;39115;59.332;18.034;2022-11-20T08:29:24;100828.34;;;1.94;70.25
51715;BME280;39115;59.332;18.034;2022-11-20T08:31:50;100817.66;;;1.97;70.28
51715;BME280;39115;59.332;18.034;2022-11-20T08:34:15;100811.56;;;1.97;70.17
51715;BME280;39115;59.332;18.034;2022-11-20T08:36:41;100803.84;;;1.94;70.13
51715;BME280;39115;59.332;18.034;2022-11-20T08:39:06;100802.91;;;1.95;70.31
51715;BME280;39115;59.332;18.034;2022-11-20T08:41:32;100796.75;;;1.96;70.55
51715;BME280;39115;59.332;18.034;2022-11-20T08:44:05;100805.53;;;1.95;70.37
51715;BME280;39115;59.332;18.034;2022-11-20T08:46:33;100799.28;;;1.97;70.30
51715;BME280;39115;59.332;18.034;2022-11-20T08:49:00;100795.03;;;1.95;70.30
51715;BME280;39115;59.332;18.034;2022-11-20T08:51:25;100790.63;;;1.95;70.19
51715;BME280;39115;59.332;18.034;2022-11-20T08:53:51;100792.31;;;1.96;70.36
51715;BME280;39115;59.332;18.034;2022-11-20T08:56:16;100793.19;;;1.97;70.25
51715;BME280;39115;59.332;18.034;2022-11-20T08:58:42;100776.56;;;1.96;70.38
51715;BME280;39115;59.332;18.034;2022-11-20T09:01:08;100777.34;;;1.98;70.33
51715;BME280;39115;59.332;18.034;2022-11-20T09:03:33;100774.63;;;2.00;70.35
51715;BME280;39115;59.332;18.034;2022-11-20T09:06:03;100771.09;;;2.01;70.24
51715;BME280;39115;59.332;18.034;2022-11-20T09:08:29;100786.00;;;2.00;70.37
51715;BME280;39115;59.332;18.034;2022-11-20T09:10:55;100768.53;;;1.99;70.35
51715;BME280;39115;59.332;18.034;2022-11-20T09:13:21;100781.59;;;2.01;70.33
51715;BME280;39115;59.332;18.034;2022-11-20T09:15:46;100780.75;;;2.00;70.60
51715;BME280;39115;59.332;18.034;2022-11-20T09:18:12;100775.50;;;2.00;70.34
51715;BME280;39115;59.332;18.034;2022-11-20T09:20:38;100770.84;;;2.05;70.34
51715;BME280;39115;59.332;18.034;2022-11-20T09:23:03;100764.69;;;2.07;70.41
51715;BME280;39115;59.332;18.034;2022-11-20T09:25:28;100762.88;;;2.07;70.11
51715;BME280;39115;59.332;18.034;2022-11-20T09:27:57;100763.75;;;2.08;70.31
51715;BME280;39115;59.332;18.034;2022-11-20T09:30:22;100760.34;;;2.05;70.21
51715;BME280;39115;59.332;18.034;2022-11-20T09:32:48;100760.50;;;2.02;70.47
51715;BME280;39115;59.332;18.034;2022-11-20T09:35:13;100752.63;;;2.02;70.38
51715;BME280;39115;59.332;18.034;2022-11-20T09:37:39;100753.41;;;2.04;70.37
51715;BME280;39115;59.332;18.034;2022-11-20T09:40:04;100752.56;;;2.04;70.62
51715;BME280;39115;59.332;18.034;2022-11-20T09:45:09;100743.75;;;2.05;70.29
51715;BME280;39115;59.332;18.034;2022-11-20T09:55:21;100725.81;;;2.13;70.18
51715;BME280;39115;59.332;18.034;2022-11-20T09:57:47;100724.97;;;2.13;70.27
51715;BME280;39115;59.332;18.034;2022-11-20T10:00:13;100723.00;;;2.16;70.29
51715;BME280;39115;59.332;18.034;2022-11-20T10:02:44;100732.34;;;2.22;70.28
51715;BME280;39115;59.332;18.034;2022-11-20T10:05:18;100719.91;;;2.26;70.19
51715;BME280;39115;59.332;18.034;2022-11-20T10:25:20;100686.94;;;2.20;70.72
51715;BME280;39115;59.332;18.034;2022-11-20T10:30:13;100683.72;;;2.15;70.30
51715;BME280;39115;59.332;18.034;2022-11-20T10:32:43;100679.28;;;2.15;70.49
51715;BME280;39115;59.332;18.034;2022-11-20T10:35:27;100676.75;;;2.14;70.39
51715;BME280;39115;59.332;18.034;2022-11-20T10:38:00;100675.97;;;2.12;70.79
51715;BME280;39115;59.332;18.034;2022-11-20T10:43:04;100658.72;;;2.08;70.47
51715;BME280;39115;59.332;18.034;2022-11-20T10:45:36;100655.41;;;2.04;70.46
51715;BME280;39115;59.332;18.034;2022-11-20T10:48:12;100662.41;;;2.03;70.59
51715;BME280;39115;59.332;18.034;2022-11-20T10:50:41;100658.03;;;2.04;70.63
51715;BME280;39115;59.332;18.034;2022-11-20T10:56:11;100666.16;;;1.99;70.60
51715;BME280;39115;59.332;18.034;2022-11-20T11:01:14;100655.56;;;2.01;70.57
51715;BME280;39115;59.332;18.034;2022-11-20T11:03:40;100649.28;;;2.03;70.60
51715;BME280;39115;59.332;18.034;2022-11-20T11:08:49;100640.41;;;2.06;70.36
51715;BME280;39115;59.332;18.034;2022-11-20T11:11:23;100632.44;;;2.08;70.42
51715;BME280;39115;59.332;18.034;2022-11-20T11:13:49;100639.31;;;2.10;70.39
51715;BME280;39115;59.332;18.034;2022-11-20T11:16:21;100634.97;;;2.09;70.41
51715;BME280;39115;59.332;18.034;2022-11-20T11:18:48;100635.91;;;2.08;70.90
51715;BME280;39115;59.332;18.034;2022-11-20T11:21:13;100609.66;;;2.08;70.76
51715;BME280;39115;59.332;18.034;2022-11-20T11:23:44;100611.44;;;2.08;70.58
51715;BME280;39115;59.332;18.034;2022-11-20T11:26:20;100615.81;;;2.07;70.54
51715;BME280;39115;59.332;18.034;2022-11-20T11:28:53;100607.03;;;2.08;70.56
51715;BME280;39115;59.332;18.034;2022-11-20T11:31:21;100600.75;;;2.11;70.17
51715;BME280;39115;59.332;18.034;2022-11-20T11:33:48;100598.06;;;2.12;70.66
51715;BME280;39115;59.332;18.034;2022-11-20T11:36:18;100587.38;;;2.15;70.38
51715;BME280;39115;59.332;18.034;2022-11-20T11:38:45;100596.03;;;2.17;70.43
51715;BME280;39115;59.332;18.034;2022-11-20T11:41:16;100578.66;;;2.15;70.33
51715;BME280;39115;59.332;18.034;2022-11-20T11:43:48;100576.88;;;2.15;70.38
51715;BME280;39115;59.332;18.034;2022-11-20T11:46:38;100574.25;;;2.15;70.39
51715;BME280;39115;59.332;18.034;2022-11-20T11:52:17;100566.38;;;2.15;70.40
51715;BME280;39115;59.332;18.034;2022-11-20T11:54:50;100570.59;;;2.18;70.32
51715;BME280;39115;59.332;18.034;2022-11-20T12:02:29;100551.53;;;2.14;70.57
51715;BME280;39115;59.332;18.034;2022-11-20T12:07:48;100557.47;;;2.02;70.74
51715;BME280;39115;59.332;18.034;2022-11-20T12:10:21;100550.72;;;1.98;70.43
51715;BME280;39115;59.332;18.034;2022-11-20T12:12:54;100551.78;;;1.94;70.62
51715;BME280;39115;59.332;18.034;2022-11-20T12:15:31;100539.78;;;1.89;70.71
51715;BME280;39115;59.332;18.034;2022-11-20T12:17:56;100532.75;;;1.90;70.77
51715;BME280;39115;59.332;18.034;2022-11-20T12:20:24;100521.56;;;1.86;70.70
51715;BME280;39115;59.332;18.034;2022-11-20T12:25:28;100535.84;;;1.81;70.96
51715;BME280;39115;59.332;18.034;2022-11-20T12:27:58;100540.38;;;1.79;70.75
51715;BME280;39115;59.332;18.034;2022-11-20T12:30:28;100535.38;;;1.74;70.97
51715;BME280;39115;59.332;18.034;2022-11-20T12:43:12;100516.13;;;1.73;70.78
51715;BME280;39115;59.332;18.034;2022-11-20T12:48:50;100525.44;;;1.79;70.86
51715;BME280;39115;59.332;18.034;2022-11-20T12:54:16;100503.28;;;1.85;70.61
51715;BME280;39115;59.332;18.034;2022-11-20T13:01:44;100503.34;;;1.83;70.34
51715;BME280;39115;59.332;18.034;2022-11-20T13:06:43;100493.47;;;1.88;70.38
51715;BME280;39115;59.332;18.034;2022-11-20T13:11:39;100476.59;;;1.93;70.52
51715;BME280;39115;59.332;18.034;2022-11-20T13:14:19;100474.63;;;1.96;70.62
51715;BME280;39115;59.332;18.034;2022-11-20T13:16:54;100466.69;;;1.98;70.23
51715;BME280;39115;59.332;18.034;2022-11-20T13:19:21;100467.44;;;2.00;70.48
51715;BME280;39115;59.332;18.034;2022-11-20T13:21:47;100464.75;;;2.01;70.57
51715;BME280;39115;59.332;18.034;2022-11-20T13:26:44;100459.75;;;1.97;70.52
51715;BME280;39115;59.332;18.034;2022-11-20T13:29:17;100456.50;;;1.92;70.64
51715;BME280;39115;59.332;18.034;2022-11-20T13:31:43;100454.25;;;1.85;70.29
51715;BME280;39115;59.332;18.034;2022-11-20T13:34:11;100455.34;;;1.81;70.82
51715;BME280;39115;59.332;18.034;2022-11-20T13:36:38;100451.13;;;1.79;70.40
51715;BME280;39115;59.332;18.034;2022-11-20T13:39:23;100451.19;;;1.77;71.00
51715;BME280;39115;59.332;18.034;2022-11-20T13:41:53;100439.09;;;1.74;70.98
51715;BME280;39115;59.332;18.034;2022-11-20T13:44:38;100430.38;;;1.74;70.60
51715;BME280;39115;59.332;18.034;2022-11-20T13:47:04;100434.69;;;1.75;70.69
51715;BME280;39115;59.332;18.034;2022-11-20T13:49:44;100435.44;;;1.77;70.59
51715;BME280;39115;59.332;18.034;2022-11-20T13:52:25;100424.00;;;1.78;70.54
51715;BME280;39115;59.332;18.034;2022-11-20T13:57:39;100418.25;;;1.71;70.55
51715;BME280;39115;59.332;18.034;2022-11-20T14:02:38;100410.47;;;1.70;70.79
51715;BME280;39115;59.332;18.034;2022-11-20T14:05:04;100421.06;;;1.68;70.67
51715;BME280;39115;59.332;18.034;2022-11-20T14:07:40;100410.66;;;1.67;70.62
51715;BME280;39115;59.332;18.034;2022-11-20T14:10:06;100419.38;;;1.67;70.40
51715;BME280;39115;59.332;18.034;2022-11-20T14:12:32;100407.19;;;1.66;70.68
51715;BME280;39115;59.332;18.034;2022-11-20T14:14:58;100401.09;;;1.66;70.52
51715;BME280;39115;59.332;18.034;2022-11-20T14:17:28;100397.59;;;1.65;70.75
51715;BME280;39115;59.332;18.034;2022-11-20T14:19:54;100390.59;;;1.66;70.31
51715;BME280;39115;59.332;18.034;2022-11-20T14:22:24;100390.75;;;1.63;70.64
51715;BME280;39115;59.332;18.034;2022-11-20T14:27:35;100399.91;;;1.55;70.48
51715;BME280;39115;59.332;18.034;2022-11-20T14:30:01;100399.13;;;1.53;70.22
51715;BME280;39115;59.332;18.034;2022-11-20T14:32:28;100388.06;;;1.48;70.58